createdAt,value
2023-03-12T00:00:30.492Z,22.26
2023-03-12T00:01:30.824Z,22.23
2023-03-12T00:02:29.756Z,22.24
2023-03-12T00:03:30.769Z,22.23
2023-03-12T00:04:29.710Z,22.24
2023-03-12T00:05:30.772Z,22.24
2023-03-12T00:06:29.834Z,22.24
2023-03-12T00:07:29.904Z,22.26
2023-03-12T00:08:30.960Z,22.26
2023-03-12T00:09:31.025Z,22.23
2023-03-12T00:10:30.268Z,22.24
2023-03-12T00:11:31.287Z,22.23
2023-03-12T00:12:31.511Z,22.24
2023-03-12T00:13:31.303Z,22.24
2023-03-12T00:14:30.601Z,22.21
2023-03-12T00:15:31.579Z,22.24
2023-03-12T00:16:31.644Z,22.23
2023-03-12T00:17:30.679Z,22.23
2023-03-12T00:18:31.886Z,22.21
2023-03-12T00:19:32.362Z,22.24
2023-03-12T00:20:32.662Z,22.19
2023-03-12T00:21:31.935Z,22.20
2023-03-12T00:22:32.144Z,22.23
2023-03-12T00:23:31.856Z,22.20
2023-03-12T00:24:31.885Z,22.21
2023-03-12T00:25:31.943Z,22.21
2023-03-12T00:26:32.035Z,22.24
2023-03-12T00:27:32.077Z,22.23
2023-03-12T00:28:32.130Z,22.27
2023-03-12T00:29:32.176Z,22.23
2023-03-12T00:30:32.245Z,22.24
2023-03-12T00:31:31.399Z,22.26
2023-03-12T00:32:32.398Z,22.27
2023-03-12T00:33:32.383Z,22.27
2023-03-12T00:34:32.457Z,22.27
2023-03-12T00:35:32.526Z,22.30
2023-03-12T00:36:32.532Z,22.29
2023-03-12T00:37:32.587Z,22.32
2023-03-12T00:38:32.632Z,22.33
2023-03-12T00:39:32.671Z,22.35
2023-03-12T00:40:31.717Z,22.33
2023-03-12T00:41:32.762Z,22.35
2023-03-12T00:42:32.830Z,22.37
2023-03-12T00:43:32.834Z,22.39
2023-03-12T00:44:32.868Z,22.39
2023-03-12T00:45:32.921Z,22.40
2023-03-12T00:46:33.003Z,22.42
2023-03-12T00:47:33.007Z,22.44
2023-03-12T00:48:33.020Z,22.44
2023-03-12T00:49:33.053Z,22.46
2023-03-12T00:50:33.098Z,22.47
2023-03-12T00:51:33.136Z,22.48
2023-03-12T00:52:32.153Z,22.48
2023-03-12T00:53:32.179Z,22.50
2023-03-12T00:54:32.187Z,22.53
2023-03-12T00:55:33.216Z,22.53
2023-03-12T00:56:33.238Z,22.53
2023-03-12T00:57:33.276Z,22.55
2023-03-12T00:58:33.300Z,22.54
2023-03-12T00:59:33.311Z,22.55
2023-03-12T01:00:33.348Z,22.54
2023-03-12T01:01:33.385Z,22.57
2023-03-12T01:02:33.376Z,22.55
2023-03-12T01:03:33.398Z,22.60
2023-03-12T01:04:33.415Z,22.60
2023-03-12T01:05:35.138Z,22.60
2023-03-12T01:06:33.680Z,22.61
2023-03-12T01:07:33.724Z,22.61
2023-03-12T01:08:33.724Z,22.63
2023-03-12T01:09:33.732Z,22.64
2023-03-12T01:10:32.737Z,22.64
2023-03-12T01:11:33.761Z,22.65
2023-03-12T01:12:32.781Z,22.65
2023-03-12T01:13:33.789Z,22.67
2023-03-12T01:14:33.815Z,22.67
2023-03-12T01:15:32.832Z,22.65
2023-03-12T01:16:33.909Z,22.68
2023-03-12T01:17:33.876Z,22.70
2023-03-12T01:18:33.869Z,22.68
2023-03-12T01:19:33.886Z,22.70
2023-03-12T01:20:33.907Z,22.72
2023-03-12T01:21:33.921Z,22.70
2023-03-12T01:22:33.925Z,22.71
2023-03-12T01:23:34.026Z,22.72
2023-03-12T01:24:33.944Z,22.72
2023-03-12T01:25:32.950Z,22.71
2023-03-12T01:26:33.958Z,22.74
2023-03-12T01:27:33.983Z,22.72
2023-03-12T01:28:34.003Z,22.75
2023-03-12T01:29:34.005Z,22.75
2023-03-12T01:30:34.019Z,22.72
2023-03-12T01:31:34.023Z,22.75
2023-03-12T01:32:33.060Z,22.74
2023-03-12T01:33:34.045Z,22.75
2023-03-12T01:34:34.068Z,22.76
2023-03-12T01:35:34.152Z,22.76
2023-03-12T01:36:34.140Z,22.76
2023-03-12T01:37:34.123Z,22.75
2023-03-12T01:38:33.100Z,22.76
2023-03-12T01:39:34.121Z,22.78
2023-03-12T01:40:34.120Z,22.78
2023-03-12T01:41:34.105Z,22.78
2023-03-12T01:42:34.107Z,22.79
2023-03-12T01:43:34.126Z,22.79
2023-03-12T01:44:34.114Z,22.79
2023-03-12T01:45:33.181Z,22.81
2023-03-12T01:46:34.125Z,22.79
2023-03-12T01:47:33.120Z,22.81
2023-03-12T01:48:34.152Z,22.79
2023-03-12T01:49:33.144Z,22.84
2023-03-12T01:50:34.133Z,22.82
2023-03-12T01:51:33.136Z,22.81
2023-03-12T01:52:34.141Z,22.82
2023-03-12T01:53:33.135Z,22.82
2023-03-12T01:54:33.131Z,22.81
2023-03-12T01:55:34.164Z,22.82
2023-03-12T01:56:34.145Z,22.84
2023-03-12T01:57:33.131Z,22.84
2023-03-12T01:58:33.125Z,22.84
2023-03-12T01:59:34.129Z,22.84
2023-03-12T02:00:33.203Z,22.84
2023-03-12T02:01:34.176Z,22.85
2023-03-12T02:02:34.124Z,22.88
2023-03-12T02:03:34.192Z,22.85
2023-03-12T02:04:34.148Z,22.85
2023-03-12T02:05:34.134Z,22.88
2023-03-12T02:06:34.128Z,22.87
2023-03-12T02:07:33.121Z,22.88
2023-03-12T02:08:33.128Z,22.87
2023-03-12T02:09:34.139Z,22.88
2023-03-12T02:10:34.127Z,22.87
2023-03-12T02:11:33.149Z,22.88
2023-03-12T02:12:34.126Z,22.91
2023-03-12T02:13:33.205Z,22.88
2023-03-12T02:14:34.131Z,22.88
2023-03-12T02:15:34.136Z,22.90
2023-03-12T02:16:33.182Z,22.90
2023-03-12T02:17:33.145Z,22.91
2023-03-12T02:18:34.154Z,22.91
2023-03-12T02:19:33.244Z,22.91
2023-03-12T02:20:34.142Z,22.92
2023-03-12T02:21:33.140Z,22.91
2023-03-12T02:22:34.128Z,22.92
2023-03-12T02:23:33.136Z,22.92
2023-03-12T02:24:33.159Z,22.92
2023-03-12T02:25:34.130Z,22.92
2023-03-12T02:26:33.131Z,22.92
2023-03-12T02:27:34.156Z,22.94
2023-03-12T02:28:34.129Z,22.91
2023-03-12T02:29:34.148Z,22.94
2023-03-12T02:30:34.126Z,22.94
2023-03-12T02:31:33.236Z,22.92
2023-03-12T02:32:33.190Z,22.94
2023-03-12T02:33:34.110Z,22.94
2023-03-12T02:34:34.119Z,22.92
2023-03-12T02:35:34.126Z,22.95
2023-03-12T02:36:33.108Z,22.94
2023-03-12T02:37:33.105Z,22.95
2023-03-12T02:38:34.101Z,22.94
2023-03-12T02:39:34.126Z,22.92
2023-03-12T02:40:34.109Z,22.94
2023-03-12T02:41:34.098Z,22.95
2023-03-12T02:42:34.104Z,22.95
2023-03-12T02:43:33.123Z,22.95
2023-03-12T02:44:34.091Z,22.94
2023-03-12T02:45:33.083Z,22.95
2023-03-12T02:46:33.071Z,22.95
2023-03-12T02:47:34.066Z,22.95
2023-03-12T02:48:33.062Z,22.94
2023-03-12T02:49:33.071Z,22.95
2023-03-12T02:50:34.066Z,22.95
2023-03-12T02:51:34.068Z,22.97
2023-03-12T02:52:34.059Z,22.97
2023-03-12T02:53:34.056Z,22.98
2023-03-12T02:54:34.052Z,22.97
2023-03-12T02:55:34.068Z,22.95
2023-03-12T02:56:33.060Z,22.97
2023-03-12T02:57:34.055Z,22.98
2023-03-12T02:58:33.046Z,22.97
2023-03-12T02:59:34.076Z,22.95
2023-03-12T03:00:34.037Z,22.95
2023-03-12T03:01:34.267Z,22.97
2023-03-12T03:02:33.010Z,22.97
2023-03-12T03:03:34.022Z,22.97
2023-03-12T03:04:34.102Z,22.98
2023-03-12T03:05:33.052Z,22.99
2023-03-12T03:06:33.038Z,22.98
2023-03-12T03:07:34.056Z,22.98
2023-03-12T03:08:34.061Z,23.01
2023-03-12T03:09:34.074Z,22.98
2023-03-12T03:10:34.070Z,22.98
2023-03-12T03:11:34.068Z,22.97
2023-03-12T03:12:34.136Z,22.99
2023-03-12T03:13:34.064Z,22.98
2023-03-12T03:14:34.075Z,22.98
2023-03-12T03:15:34.187Z,22.98
2023-03-12T03:16:34.085Z,22.98
2023-03-12T03:17:34.109Z,23.01
2023-03-12T03:18:34.143Z,23.01
2023-03-12T03:19:33.107Z,22.99
2023-03-12T03:20:33.097Z,22.99
2023-03-12T03:21:33.132Z,22.98
2023-03-12T03:22:35.017Z,23.02
2023-03-12T03:23:34.118Z,23.01
2023-03-12T03:24:33.143Z,23.01
2023-03-12T03:25:34.124Z,23.01
2023-03-12T03:26:34.147Z,23.01
2023-03-12T03:27:34.142Z,22.99
2023-03-12T03:28:33.128Z,23.01
2023-03-12T03:29:33.147Z,23.01
2023-03-12T03:30:34.154Z,23.03
2023-03-12T03:31:34.201Z,23.01
2023-03-12T03:32:34.202Z,23.01
2023-03-12T03:33:34.180Z,23.03
2023-03-12T03:34:33.186Z,23.02
2023-03-12T03:35:34.215Z,23.02
2023-03-12T03:36:34.218Z,23.05
2023-03-12T03:37:34.231Z,23.03
2023-03-12T03:38:33.272Z,23.02
2023-03-12T03:39:34.294Z,23.06
2023-03-12T03:40:33.294Z,23.03
2023-03-12T03:41:34.326Z,23.08
2023-03-12T03:42:34.349Z,23.05
2023-03-12T03:43:34.386Z,23.09
2023-03-12T03:44:34.401Z,23.06
2023-03-12T03:45:34.412Z,23.08
2023-03-12T03:46:33.477Z,23.06
2023-03-12T03:47:33.483Z,23.08
2023-03-12T03:48:34.499Z,23.09
2023-03-12T03:49:34.513Z,23.08
2023-03-12T03:50:34.521Z,23.09
2023-03-12T03:51:34.556Z,23.08
2023-03-12T03:52:34.569Z,23.10
2023-03-12T03:53:34.637Z,23.08
2023-03-12T03:54:34.644Z,23.09
2023-03-12T03:55:33.644Z,23.10
2023-03-12T03:56:34.672Z,23.10
2023-03-12T03:57:34.689Z,23.09
2023-03-12T03:58:34.714Z,23.09
2023-03-12T03:59:34.746Z,23.10
2023-03-12T04:00:34.748Z,23.10
2023-03-12T04:01:33.769Z,23.10
2023-03-12T04:02:34.806Z,23.10
2023-03-12T04:03:34.905Z,23.10
2023-03-12T04:04:34.893Z,23.12
2023-03-12T04:05:34.946Z,23.12
2023-03-12T04:06:34.932Z,23.12
2023-03-12T04:07:34.950Z,23.12
2023-03-12T04:08:34.988Z,23.10
2023-03-12T04:09:35.026Z,23.09
2023-03-12T04:10:35.026Z,23.12
2023-03-12T04:11:35.154Z,23.12
2023-03-12T04:12:35.287Z,23.10
2023-03-12T04:13:35.100Z,23.10
2023-03-12T04:14:35.108Z,23.12
2023-03-12T04:15:34.139Z,23.10
2023-03-12T04:16:34.165Z,23.12
2023-03-12T04:17:34.217Z,23.13
2023-03-12T04:18:35.219Z,23.12
2023-03-12T04:19:35.266Z,23.12
2023-03-12T04:20:35.271Z,23.12
2023-03-12T04:21:35.321Z,23.13
2023-03-12T04:22:35.335Z,23.12
2023-03-12T04:23:35.358Z,23.12
2023-03-12T04:24:35.405Z,23.15
2023-03-12T04:25:35.441Z,23.15
2023-03-12T04:26:35.460Z,23.13
2023-03-12T04:27:35.495Z,23.13
2023-03-12T04:28:35.525Z,23.15
2023-03-12T04:29:35.573Z,23.13
2023-03-12T04:30:34.596Z,23.13
2023-03-12T04:31:35.674Z,23.13
2023-03-12T04:32:34.725Z,23.12
2023-03-12T04:33:35.714Z,23.15
2023-03-12T04:34:34.736Z,23.13
2023-03-12T04:35:35.834Z,23.13
2023-03-12T04:36:35.803Z,23.13
2023-03-12T04:37:35.918Z,23.16
2023-03-12T04:38:35.941Z,23.16
2023-03-12T04:39:35.001Z,23.15
2023-03-12T04:40:35.937Z,23.15
2023-03-12T04:41:36.104Z,23.15
2023-03-12T04:42:34.995Z,23.15
2023-03-12T04:43:36.172Z,23.13
2023-03-12T04:44:36.157Z,23.15
2023-03-12T04:45:36.194Z,23.13
2023-03-12T04:46:36.162Z,23.15
2023-03-12T04:47:36.159Z,23.15
2023-03-12T04:48:35.181Z,23.15
2023-03-12T04:49:36.202Z,23.16
2023-03-12T04:50:36.222Z,23.18
2023-03-12T04:51:36.510Z,23.18
2023-03-12T04:52:36.315Z,23.16
2023-03-12T04:53:36.393Z,23.18
2023-03-12T04:54:36.378Z,23.16
2023-03-12T04:55:36.511Z,23.16
2023-03-12T04:56:36.455Z,23.16
2023-03-12T04:57:36.517Z,23.18
2023-03-12T04:58:36.600Z,23.16
2023-03-12T04:59:36.603Z,23.18
2023-03-12T05:00:36.601Z,23.19
2023-03-12T05:01:36.669Z,23.19
2023-03-12T05:02:36.786Z,23.19
2023-03-12T05:03:36.772Z,23.18
2023-03-12T05:04:36.751Z,23.19
2023-03-12T05:05:36.827Z,23.19
2023-03-12T05:06:36.825Z,23.20
2023-03-12T05:07:36.883Z,23.19
2023-03-12T05:08:35.879Z,23.19
2023-03-12T05:09:36.891Z,23.18
2023-03-12T05:10:36.936Z,23.19
2023-03-12T05:11:39.597Z,23.20
2023-03-12T05:12:36.984Z,23.19
2023-03-12T05:13:36.952Z,23.20
2023-03-12T05:14:36.949Z,23.22
2023-03-12T05:15:36.937Z,23.19
2023-03-12T05:16:37.071Z,23.19
2023-03-12T05:17:35.929Z,23.20
2023-03-12T05:18:36.967Z,23.18
2023-03-12T05:19:36.924Z,23.19
2023-03-12T05:20:36.955Z,23.20
2023-03-12T05:21:36.958Z,23.19
2023-03-12T05:22:37.036Z,23.20
2023-03-12T05:23:36.979Z,23.19
2023-03-12T05:24:37.006Z,23.19
2023-03-12T05:25:36.985Z,23.20
2023-03-12T05:26:36.845Z,23.19
2023-03-12T05:27:36.901Z,23.20
2023-03-12T05:28:36.902Z,23.22
2023-03-12T05:29:36.827Z,23.19
2023-03-12T05:30:35.938Z,23.20
2023-03-12T05:31:35.806Z,23.20
2023-03-12T05:32:36.931Z,23.19
2023-03-12T05:33:36.953Z,23.18
2023-03-12T05:34:36.956Z,23.18
2023-03-12T05:35:36.855Z,23.20
2023-03-12T05:36:36.830Z,23.19
2023-03-12T05:37:36.796Z,23.20
2023-03-12T05:38:35.789Z,23.20
2023-03-12T05:39:36.829Z,23.18
2023-03-12T05:40:36.868Z,23.20
2023-03-12T05:41:35.740Z,23.19
2023-03-12T05:42:36.749Z,23.20
2023-03-12T05:43:36.728Z,23.20
2023-03-12T05:44:35.726Z,23.19
2023-03-12T05:45:36.807Z,23.22
2023-03-12T05:46:36.701Z,23.20
2023-03-12T05:47:36.718Z,23.20
2023-03-12T05:48:36.695Z,23.22
2023-03-12T05:49:36.677Z,23.19
2023-03-12T05:50:35.678Z,23.20
2023-03-12T05:51:36.691Z,23.20
2023-03-12T05:52:36.791Z,23.20
2023-03-12T05:53:36.745Z,23.20
2023-03-12T05:54:36.769Z,23.20
2023-03-12T05:55:36.816Z,23.22
2023-03-12T05:56:36.825Z,23.20
2023-03-12T05:57:36.881Z,23.20
2023-03-12T05:58:36.890Z,23.20
2023-03-12T05:59:36.932Z,23.19
2023-03-12T06:00:36.938Z,23.22
2023-03-12T06:01:37.081Z,23.23
2023-03-12T06:02:37.097Z,23.20
2023-03-12T06:03:37.140Z,23.22
2023-03-12T06:04:37.076Z,23.23
2023-03-12T06:05:37.101Z,23.20
2023-03-12T06:06:36.155Z,23.23
2023-03-12T06:07:36.156Z,23.23
2023-03-12T06:08:37.210Z,23.22
2023-03-12T06:09:37.250Z,23.25
2023-03-12T06:10:37.271Z,23.20
2023-03-12T06:11:37.339Z,23.25
2023-03-12T06:12:37.359Z,23.22
2023-03-12T06:13:37.336Z,23.25
2023-03-12T06:14:37.381Z,23.25
2023-03-12T06:15:37.409Z,23.25
2023-03-12T06:16:37.495Z,23.27
2023-03-12T06:17:37.461Z,23.25
2023-03-12T06:18:37.486Z,23.25
2023-03-12T06:19:37.501Z,23.25
2023-03-12T06:20:37.521Z,23.26
2023-03-12T06:21:37.561Z,23.25
2023-03-12T06:22:37.644Z,23.26
2023-03-12T06:23:37.645Z,23.26
2023-03-12T06:24:37.640Z,23.26
2023-03-12T06:25:37.690Z,23.26
2023-03-12T06:26:36.713Z,23.27
2023-03-12T06:27:37.769Z,23.29
2023-03-12T06:28:36.762Z,23.29
2023-03-12T06:29:37.801Z,23.29
2023-03-12T06:30:36.809Z,23.27
2023-03-12T06:31:38.853Z,23.27
2023-03-12T06:32:37.971Z,23.29
2023-03-12T06:33:36.895Z,23.29
2023-03-12T06:34:36.927Z,23.27
2023-03-12T06:35:37.967Z,23.30
2023-03-12T06:36:38.000Z,23.29
2023-03-12T06:37:38.001Z,23.27
2023-03-12T06:38:38.019Z,23.30
2023-03-12T06:39:38.060Z,23.29
2023-03-12T06:40:37.110Z,23.30
2023-03-12T06:41:37.109Z,23.29
2023-03-12T06:42:37.142Z,23.29
2023-03-12T06:43:38.205Z,23.29
2023-03-12T06:44:38.210Z,23.29
2023-03-12T06:45:38.235Z,23.29
2023-03-12T06:46:38.339Z,23.32
2023-03-12T06:47:38.305Z,23.30
2023-03-12T06:48:38.317Z,23.30
2023-03-12T06:49:38.361Z,23.30
2023-03-12T06:50:38.380Z,23.29
2023-03-12T06:51:38.422Z,23.30
2023-03-12T06:52:37.438Z,23.32
2023-03-12T06:53:38.823Z,23.33
2023-03-12T06:54:37.470Z,23.30
2023-03-12T06:55:38.460Z,23.32
2023-03-12T06:56:38.451Z,23.30
2023-03-12T06:57:38.460Z,23.33
2023-03-12T06:58:38.459Z,23.30
2023-03-12T06:59:38.447Z,23.30
2023-03-12T07:00:38.423Z,23.33
2023-03-12T07:01:37.420Z,23.30
2023-03-12T07:02:38.509Z,23.33
2023-03-12T07:03:38.406Z,23.32
2023-03-12T07:04:38.414Z,23.33
2023-03-12T07:05:38.404Z,23.32
2023-03-12T07:06:37.370Z,23.34
2023-03-12T07:07:38.376Z,23.34
2023-03-12T07:08:38.372Z,23.30
2023-03-12T07:09:38.358Z,23.32
2023-03-12T07:10:38.345Z,23.34
2023-03-12T07:11:38.353Z,23.33
2023-03-12T07:12:37.331Z,23.32
2023-03-12T07:13:38.330Z,23.34
2023-03-12T07:14:38.315Z,23.33
2023-03-12T07:15:38.348Z,23.34
2023-03-12T07:16:38.319Z,23.34
2023-03-12T07:17:38.302Z,23.34
2023-03-12T07:18:38.312Z,23.34
2023-03-12T07:19:38.282Z,23.36
2023-03-12T07:20:38.281Z,23.36
2023-03-12T07:21:37.283Z,23.34
2023-03-12T07:22:38.272Z,23.34
2023-03-12T07:23:38.277Z,23.34
2023-03-12T07:24:38.271Z,23.36
2023-03-12T07:25:38.251Z,23.34
2023-03-12T07:26:38.233Z,23.34
2023-03-12T07:27:37.232Z,23.33
2023-03-12T07:28:38.226Z,23.36
2023-03-12T07:29:38.240Z,23.36
2023-03-12T07:30:38.275Z,23.37
2023-03-12T07:31:38.340Z,23.36
2023-03-12T07:32:38.353Z,23.34
2023-03-12T07:33:38.509Z,23.37
2023-03-12T07:34:38.494Z,23.36
2023-03-12T07:35:38.580Z,23.37
2023-03-12T07:36:37.675Z,23.36
2023-03-12T07:37:38.520Z,23.34
2023-03-12T07:38:38.550Z,23.34
2023-03-12T07:39:38.663Z,23.37
2023-03-12T07:40:38.620Z,23.37
2023-03-12T07:41:37.664Z,23.39
2023-03-12T07:42:38.685Z,23.39
2023-03-12T07:43:38.855Z,23.37
2023-03-12T07:44:38.774Z,23.39
2023-03-12T07:45:38.881Z,23.39
2023-03-12T07:46:38.913Z,23.39
2023-03-12T07:47:39.065Z,23.37
2023-03-12T07:48:38.934Z,23.39
2023-03-12T07:49:39.016Z,23.37
2023-03-12T07:50:37.995Z,23.37
2023-03-12T07:51:39.040Z,23.39
2023-03-12T07:52:39.072Z,23.40
2023-03-12T07:53:39.103Z,23.37
2023-03-12T07:54:39.195Z,23.37
2023-03-12T07:55:39.312Z,23.40
2023-03-12T07:56:38.560Z,23.40
2023-03-12T07:57:38.510Z,23.39
2023-03-12T07:58:39.535Z,23.40
2023-03-12T07:59:38.358Z,23.40
2023-03-12T08:00:39.385Z,23.37
2023-03-12T08:01:38.588Z,23.39
2023-03-12T08:02:39.714Z,23.40
2023-03-12T08:03:39.823Z,23.39
2023-03-12T08:04:38.737Z,23.40
2023-03-12T08:05:39.679Z,23.42
2023-03-12T08:06:39.693Z,23.40
2023-03-12T08:07:39.672Z,23.40
2023-03-12T08:08:39.712Z,23.40
2023-03-12T08:09:39.733Z,23.40
2023-03-12T08:10:39.771Z,23.42
2023-03-12T08:11:39.816Z,23.42
2023-03-12T08:12:39.857Z,23.42
2023-03-12T08:13:38.895Z,23.43
2023-03-12T08:14:39.995Z,23.43
2023-03-12T08:15:39.987Z,23.42
2023-03-12T08:16:40.099Z,23.40
2023-03-12T08:17:39.100Z,23.42
2023-03-12T08:18:40.147Z,23.43
2023-03-12T08:19:39.224Z,23.42
2023-03-12T08:20:40.244Z,23.42
2023-03-12T08:21:40.295Z,23.42
2023-03-12T08:22:40.339Z,23.43
2023-03-12T08:23:40.382Z,23.44
2023-03-12T08:24:40.439Z,23.42
2023-03-12T08:25:40.471Z,23.43
2023-03-12T08:26:39.516Z,23.42
2023-03-12T08:27:39.588Z,23.42
2023-03-12T08:28:40.629Z,23.44
2023-03-12T08:29:39.721Z,23.43
2023-03-12T08:30:40.747Z,23.43
2023-03-12T08:31:50.402Z,23.43
2023-03-12T08:32:41.112Z,23.43
2023-03-12T08:33:40.796Z,23.44
2023-03-12T08:34:40.795Z,23.44
2023-03-12T08:35:40.826Z,23.44
2023-03-12T08:36:40.773Z,23.43
2023-03-12T08:37:40.761Z,23.44
2023-03-12T08:38:40.762Z,23.44
2023-03-12T08:39:40.746Z,23.44
2023-03-12T08:40:40.758Z,23.43
2023-03-12T08:41:40.727Z,23.43
2023-03-12T08:42:39.768Z,23.46
2023-03-12T08:43:40.803Z,23.46
2023-03-12T08:44:40.862Z,23.46
2023-03-12T08:45:39.992Z,23.47
2023-03-12T08:46:40.991Z,23.44
2023-03-12T08:47:41.063Z,23.47
2023-03-12T08:48:41.074Z,23.44
2023-03-12T08:49:41.130Z,23.43
2023-03-12T08:50:40.199Z,23.44
2023-03-12T08:51:41.288Z,23.47
2023-03-12T08:52:41.324Z,23.46
2023-03-12T08:53:41.359Z,23.43
2023-03-12T08:54:41.428Z,23.46
2023-03-12T08:55:41.485Z,23.46
2023-03-12T08:56:41.548Z,23.46
2023-03-12T08:57:41.632Z,23.46
2023-03-12T08:58:40.656Z,23.47
2023-03-12T08:59:41.739Z,23.46
2023-03-12T09:00:41.780Z,23.46
2023-03-12T09:01:43.616Z,23.46
2023-03-12T09:02:41.873Z,23.44
2023-03-12T09:03:41.828Z,23.47
2023-03-12T09:04:41.943Z,23.47
2023-03-12T09:05:41.815Z,23.47
2023-03-12T09:06:42.635Z,23.46
2023-03-12T09:07:40.817Z,23.47
2023-03-12T09:08:41.789Z,23.46
2023-03-12T09:09:41.791Z,23.46
2023-03-12T09:10:41.772Z,23.50
2023-03-12T09:11:41.758Z,23.47
2023-03-12T09:12:41.763Z,23.47
2023-03-12T09:14:05.114Z,23.47
2023-03-12T09:15:02.563Z,23.47
2023-03-12T09:15:41.737Z,23.47
2023-03-12T09:16:41.786Z,23.47
2023-03-12T09:17:41.725Z,23.49
2023-03-12T09:18:41.726Z,23.50
2023-03-12T09:19:40.707Z,23.50
2023-03-12T09:20:41.693Z,23.49
2023-03-12T09:21:41.691Z,23.50
2023-03-12T09:22:40.675Z,23.52
2023-03-12T09:23:40.718Z,23.49
2023-03-12T09:24:40.662Z,23.50
2023-03-12T09:25:41.669Z,23.50
2023-03-12T09:26:41.645Z,23.49
2023-03-12T09:27:41.661Z,23.50
2023-03-12T09:28:41.633Z,23.50
2023-03-12T09:29:58.701Z,23.50
2023-03-12T09:30:41.758Z,23.50
2023-03-12T09:31:41.614Z,23.50
2023-03-12T09:32:40.685Z,23.49
2023-03-12T09:33:41.609Z,23.50
2023-03-12T09:34:40.608Z,23.49
2023-03-12T09:35:40.605Z,23.50
2023-03-12T09:36:40.603Z,23.50
2023-03-12T09:37:41.575Z,23.50
2023-03-12T09:38:41.572Z,23.50
2023-03-12T09:39:41.684Z,23.49
2023-03-12T09:40:41.610Z,23.53
2023-03-12T09:41:41.558Z,23.53
2023-03-12T09:42:41.549Z,23.53
2023-03-12T09:43:41.546Z,23.49
2023-03-12T09:44:41.533Z,23.52
2023-03-12T09:45:40.521Z,23.52
2023-03-12T09:46:40.515Z,23.49
2023-03-12T09:47:41.500Z,23.50
2023-03-12T09:48:41.495Z,23.52
2023-03-12T09:49:41.535Z,23.52
2023-03-12T09:50:41.490Z,23.50
2023-03-12T09:51:40.472Z,23.50
2023-03-12T09:52:41.495Z,23.52
2023-03-12T09:53:41.557Z,23.53
2023-03-12T09:54:41.609Z,23.52
2023-03-12T09:55:41.712Z,23.52
2023-03-12T09:56:41.745Z,23.50
2023-03-12T09:57:41.797Z,23.52
2023-03-12T09:58:41.854Z,23.52
2023-03-12T09:59:41.915Z,23.52
2023-03-12T10:00:41.972Z,23.52
2023-03-12T10:01:42.015Z,23.52
2023-03-12T10:02:42.087Z,23.53
2023-03-12T10:03:42.239Z,23.53
2023-03-12T10:04:58.220Z,23.53
2023-03-12T10:05:42.198Z,23.56
2023-03-12T10:06:42.175Z,23.50
2023-03-12T10:07:42.176Z,23.53
2023-03-12T10:08:41.148Z,23.53
2023-03-12T10:09:42.199Z,23.53
2023-03-12T10:10:42.148Z,23.53
2023-03-12T10:11:42.168Z,23.52
2023-03-12T10:12:42.136Z,23.54
2023-03-12T10:13:42.123Z,23.54
2023-03-12T10:14:41.119Z,23.54
2023-03-12T10:15:42.175Z,23.54
2023-03-12T10:16:42.192Z,23.54
2023-03-12T10:17:41.292Z,23.53
2023-03-12T10:18:41.535Z,23.54
2023-03-12T10:19:42.375Z,23.54
2023-03-12T10:20:42.406Z,23.53
2023-03-12T10:21:41.481Z,23.54
2023-03-12T10:22:41.533Z,23.52
2023-03-12T10:23:42.601Z,23.53
2023-03-12T10:24:42.645Z,23.54
2023-03-12T10:25:42.719Z,23.54
2023-03-12T10:26:41.766Z,23.56
2023-03-12T10:27:42.877Z,23.54
2023-03-12T10:28:41.886Z,23.56
2023-03-12T10:29:44.571Z,23.56
2023-03-12T10:30:43.002Z,23.58
2023-03-12T10:31:42.930Z,23.58
2023-03-12T10:32:43.030Z,23.58
2023-03-12T10:33:42.965Z,23.58
2023-03-12T10:34:42.935Z,23.57
2023-03-12T10:35:42.947Z,23.58
2023-03-12T10:36:42.908Z,23.54
2023-03-12T10:37:42.886Z,23.57
2023-03-12T10:38:42.888Z,23.57
2023-03-12T10:39:42.893Z,23.58
2023-03-12T10:40:42.853Z,23.58
2023-03-12T10:41:41.860Z,23.58
2023-03-12T10:42:42.856Z,23.58
2023-03-12T10:43:42.865Z,23.58
2023-03-12T10:44:42.894Z,23.58
2023-03-12T10:45:42.846Z,23.57
2023-03-12T10:46:42.886Z,23.58
2023-03-12T10:47:42.810Z,23.56
2023-03-12T10:48:42.815Z,23.57
2023-03-12T10:49:42.789Z,23.58
2023-03-12T10:50:42.795Z,23.60
2023-03-12T10:51:41.786Z,23.58
2023-03-12T10:52:42.774Z,23.58
2023-03-12T10:53:42.830Z,23.60
2023-03-12T10:54:42.845Z,23.61
2023-03-12T10:55:42.913Z,23.60
2023-03-12T10:56:41.964Z,23.61
2023-03-12T10:57:43.027Z,23.61
2023-03-12T10:58:43.080Z,23.61
2023-03-12T10:59:43.224Z,23.57
2023-03-12T11:00:43.199Z,23.61
2023-03-12T11:01:43.303Z,23.61
2023-03-12T11:02:43.310Z,23.60
2023-03-12T11:03:43.359Z,23.60
2023-03-12T11:04:43.408Z,23.61
2023-03-12T11:05:43.493Z,23.60
2023-03-12T11:06:43.534Z,23.61
2023-03-12T11:07:43.566Z,23.63
2023-03-12T11:08:43.620Z,23.63
2023-03-12T11:09:43.675Z,23.65
2023-03-12T11:10:43.729Z,23.63
2023-03-12T11:11:43.778Z,23.61
2023-03-12T11:12:43.813Z,23.63
2023-03-12T11:13:43.870Z,23.64
2023-03-12T11:14:43.923Z,23.63
2023-03-12T11:15:44.066Z,23.63
2023-03-12T11:16:44.032Z,23.64
2023-03-12T11:17:44.089Z,23.64
2023-03-12T11:18:44.134Z,23.64
2023-03-12T11:19:43.206Z,23.65
2023-03-12T11:20:44.248Z,23.67
2023-03-12T11:21:44.287Z,23.64
2023-03-12T11:22:44.346Z,23.64
2023-03-12T11:23:44.398Z,23.65
2023-03-12T11:24:43.457Z,23.65
2023-03-12T11:25:44.516Z,23.65
2023-03-12T11:26:44.565Z,23.64
2023-03-12T11:27:44.594Z,23.65
2023-03-12T11:28:44.644Z,23.65
2023-03-12T11:29:43.782Z,23.67
2023-03-12T11:30:44.839Z,23.67
2023-03-12T11:31:47.128Z,23.67
2023-03-12T11:32:44.892Z,23.63
2023-03-12T11:33:44.770Z,23.64
2023-03-12T11:34:44.763Z,23.68
2023-03-12T11:35:44.793Z,23.65
2023-03-12T11:36:44.757Z,23.65
2023-03-12T11:37:44.743Z,23.67
2023-03-12T11:38:44.734Z,23.65
2023-03-12T11:39:44.737Z,23.65
2023-03-12T11:40:43.710Z,23.67
2023-03-12T11:41:44.706Z,23.64
2023-03-12T11:42:44.710Z,23.65
2023-03-12T11:43:44.705Z,23.67
2023-03-12T11:44:44.684Z,23.65
2023-03-12T11:45:44.706Z,23.65
2023-03-12T11:46:44.779Z,23.65
2023-03-12T11:47:44.554Z,23.67
2023-03-12T11:48:43.750Z,23.68
2023-03-12T11:49:44.663Z,23.70
2023-03-12T11:50:44.652Z,23.70
2023-03-12T11:51:43.644Z,23.67
2023-03-12T11:52:43.632Z,23.70
2023-03-12T11:53:44.637Z,23.68
2023-03-12T11:54:43.650Z,23.70
2023-03-12T11:55:44.626Z,23.70
2023-03-12T11:56:43.646Z,23.67
2023-03-12T11:57:44.597Z,23.67
2023-03-12T11:58:44.590Z,23.68
2023-03-12T11:59:44.633Z,23.68
2023-03-12T12:00:45.351Z,23.68
2023-03-12T12:01:44.784Z,23.67
2023-03-12T12:02:44.784Z,23.67
2023-03-12T12:03:44.863Z,23.67
2023-03-12T12:04:43.905Z,23.70
2023-03-12T12:05:44.968Z,23.71
2023-03-12T12:06:46.942Z,23.67
2023-03-12T12:07:44.991Z,23.68
2023-03-12T12:08:44.982Z,23.70
2023-03-12T12:09:44.973Z,23.70
2023-03-12T12:10:44.962Z,23.67
2023-03-12T12:11:44.967Z,23.68
2023-03-12T12:12:43.943Z,23.67
2023-03-12T12:13:44.943Z,23.68
2023-03-12T12:14:44.929Z,23.68
2023-03-12T12:15:44.932Z,23.68
2023-03-12T12:16:45.014Z,23.70
2023-03-12T12:17:44.917Z,23.67
2023-03-12T12:18:44.912Z,23.70
2023-03-12T12:19:44.930Z,23.70
2023-03-12T12:20:44.899Z,23.71
2023-03-12T12:21:44.897Z,23.68
2023-03-12T12:22:43.882Z,23.70
2023-03-12T12:23:44.866Z,23.70
2023-03-12T12:24:44.868Z,23.71
2023-03-12T12:25:44.858Z,23.70
2023-03-12T12:26:43.850Z,23.71
2023-03-12T12:27:44.849Z,23.70
2023-03-12T12:28:44.844Z,23.70
2023-03-12T12:29:44.832Z,23.70
2023-03-12T12:30:44.826Z,23.68
2023-03-12T12:31:44.908Z,23.68
2023-03-12T12:32:44.951Z,23.68
2023-03-12T12:33:44.818Z,23.68
2023-03-12T12:34:44.787Z,23.70
2023-03-12T12:35:44.870Z,23.70
2023-03-12T12:36:43.863Z,23.70
2023-03-12T12:37:44.914Z,23.70
2023-03-12T12:38:44.955Z,23.68
2023-03-12T12:39:46.977Z,23.70
2023-03-12T12:40:44.005Z,23.70
2023-03-12T12:41:44.998Z,23.67
2023-03-12T12:42:43.997Z,23.67
2023-03-12T12:43:44.991Z,23.68
2023-03-12T12:44:45.006Z,23.70
2023-03-12T12:45:45.093Z,23.68
2023-03-12T12:46:44.966Z,23.68
2023-03-12T12:47:44.962Z,23.70
2023-03-12T12:48:43.951Z,23.70
2023-03-12T12:49:44.939Z,23.68
2023-03-12T12:50:44.932Z,23.70
2023-03-12T12:51:45.051Z,23.68
2023-03-12T12:52:44.931Z,23.70